sensor_id;sensor_type;location;lat;lon;timestamp;temperature;humidity
26035;DHT22;13809;48.632;11.576;2022-08-16T00:00:30;23.80;29.20
26035;DHT22;13809;48.632;11.576;2022-08-16T00:05:41;23.80;28.80
26035;DHT22;13809;48.632;11.576;2022-08-16T00:10:49;23.80;29.00
26035;DHT22;13809;48.632;11.576;2022-08-16T00:15:54;23.70;28.70
26035;DHT22;13809;48.632;11.576;2022-08-16T00:21:00;23.70;28.90
26035;DHT22;13809;48.632;11.576;2022-08-16T00:26:04;23.70;29.00
26035;DHT22;13809;48.632;11.576;2022-08-16T00:31:29;23.60;28.60
26035;DHT22;13809;48.632;11.576;2022-08-16T00:36:54;23.60;29.00
26035;DHT22;13809;48.632;11.576;2022-08-16T00:41:59;23.40;28.90
26035;DHT22;13809;48.632;11.576;2022-08-16T00:47:05;23.30;28.90
26035;DHT22;13809;48.632;11.576;2022-08-16T00:52:11;23.10;29.40
26035;DHT22;13809;48.632;11.576;2022-08-16T00:57:31;23.00;29.40
26035;DHT22;13809;48.632;11.576;2022-08-16T01:02:56;22.90;29.40
26035;DHT22;13809;48.632;11.576;2022-08-16T01:08:01;22.80;29.50
26035;DHT22;13809;48.632;11.576;2022-08-16T01:13:27;22.80;29.80
26035;DHT22;13809;48.632;11.576;2022-08-16T01:18:34;22.80;30.00
26035;DHT22;13809;48.632;11.576;2022-08-16T01:24:01;22.70;29.90
26035;DHT22;13809;48.632;11.576;2022-08-16T01:29:31;22.70;30.00
26035;DHT22;13809;48.632;11.576;2022-08-16T01:34:55;22.70;30.00
26035;DHT22;13809;48.632;11.576;2022-08-16T01:40:01;22.70;29.60
26035;DHT22;13809;48.632;11.576;2022-08-16T01:45:08;22.60;30.00
26035;DHT22;13809;48.632;11.576;2022-08-16T01:50:11;22.50;30.00
26035;DHT22;13809;48.632;11.576;2022-08-16T01:55:36;22.40;29.80
26035;DHT22;13809;48.632;11.576;2022-08-16T02:00:41;22.40;30.60
26035;DHT22;13809;48.632;11.576;2022-08-16T02:05:47;22.30;30.10
26035;DHT22;13809;48.632;11.576;2022-08-16T02:10:54;22.20;30.30
26035;DHT22;13809;48.632;11.576;2022-08-16T02:15:58;22.20;30.80
26035;DHT22;13809;48.632;11.576;2022-08-16T02:21:02;22.10;30.50
26035;DHT22;13809;48.632;11.576;2022-08-16T02:26:07;22.10;30.90
26035;DHT22;13809;48.632;11.576;2022-08-16T02:31:17;22.10;31.00
26035;DHT22;13809;48.632;11.576;2022-08-16T02:36:42;22.00;30.60
26035;DHT22;13809;48.632;11.576;2022-08-16T02:41:52;22.00;30.80
26035;DHT22;13809;48.632;11.576;2022-08-16T02:46:56;21.90;31.20
26035;DHT22;13809;48.632;11.576;2022-08-16T02:52:00;21.90;30.70
26035;DHT22;13809;48.632;11.576;2022-08-16T02:57:05;21.90;30.90
26035;DHT22;13809;48.632;11.576;2022-08-16T03:02:09;21.80;30.90
26035;DHT22;13809;48.632;11.576;2022-08-16T03:07:16;21.80;31.00
26035;DHT22;13809;48.632;11.576;2022-08-16T03:12:30;21.70;31.10
26035;DHT22;13809;48.632;11.576;2022-08-16T03:17:53;21.70;31.50
26035;DHT22;13809;48.632;11.576;2022-08-16T03:22:56;21.60;31.20
26035;DHT22;13809;48.632;11.576;2022-08-16T03:28:01;21.40;31.90
26035;DHT22;13809;48.632;11.576;2022-08-16T03:33:09;21.30;31.60
26035;DHT22;13809;48.632;11.576;2022-08-16T03:38:14;21.20;31.30
26035;DHT22;13809;48.632;11.576;2022-08-16T03:43:36;21.10;31.60
26035;DHT22;13809;48.632;11.576;2022-08-16T03:48:53;21.10;32.00
26035;DHT22;13809;48.632;11.576;2022-08-16T03:53:56;20.90;31.30
26035;DHT22;13809;48.632;11.576;2022-08-16T03:59:03;20.70;31.70
26035;DHT22;13809;48.632;11.576;2022-08-16T04:04:07;20.60;32.30
26035;DHT22;13809;48.632;11.576;2022-08-16T04:09:18;20.50;32.00
26035;DHT22;13809;48.632;11.576;2022-08-16T04:14:23;20.40;32.40
26035;DHT22;13809;48.632;11.576;2022-08-16T04:19:33;20.30;32.90
26035;DHT22;13809;48.632;11.576;2022-08-16T04:24:37;20.30;32.60
26035;DHT22;13809;48.632;11.576;2022-08-16T04:29:42;20.30;32.60
26035;DHT22;13809;48.632;11.576;2022-08-16T04:34:47;20.30;33.10
26035;DHT22;13809;48.632;11.576;2022-08-16T04:39:50;20.30;32.80
26035;DHT22;13809;48.632;11.576;2022-08-16T04:44:59;20.40;32.80
26035;DHT22;13809;48.632;11.576;2022-08-16T04:50:04;20.40;33.30
26035;DHT22;13809;48.632;11.576;2022-08-16T04:55:10;20.40;33.20
26035;DHT22;13809;48.632;11.576;2022-08-16T05:00:19;20.40;33.30
26035;DHT22;13809;48.632;11.576;2022-08-16T05:05:35;20.50;33.90
26035;DHT22;13809;48.632;11.576;2022-08-16T05:10:46;20.50;33.60
26035;DHT22;13809;48.632;11.576;2022-08-16T05:15:51;20.50;33.20
26035;DHT22;13809;48.632;11.576;2022-08-16T05:20:55;20.50;33.80
26035;DHT22;13809;48.632;11.576;2022-08-16T05:26:12;20.60;33.50
26035;DHT22;13809;48.632;11.576;2022-08-16T05:31:23;20.60;33.40
26035;DHT22;13809;48.632;11.576;2022-08-16T05:36:31;20.60;34.00
26035;DHT22;13809;48.632;11.576;2022-08-16T05:41:37;20.60;34.00
26035;DHT22;13809;48.632;11.576;2022-08-16T05:46:48;20.60;34.10
26035;DHT22;13809;48.632;11.576;2022-08-16T05:51:52;20.70;34.60
26035;DHT22;13809;48.632;11.576;2022-08-16T05:56:57;20.70;34.40
26035;DHT22;13809;48.632;11.576;2022-08-16T06:02:03;20.80;35.00
26035;DHT22;13809;48.632;11.576;2022-08-16T06:07:07;20.80;35.30
26035;DHT22;13809;48.632;11.576;2022-08-16T06:12:27;20.90;34.80
26035;DHT22;13809;48.632;11.576;2022-08-16T06:17:33;21.00;35.10
26035;DHT22;13809;48.632;11.576;2022-08-16T06:22:45;21.00;35.60
26035;DHT22;13809;48.632;11.576;2022-08-16T06:27:58;21.10;35.50
26035;DHT22;13809;48.632;11.576;2022-08-16T06:33:03;21.20;35.50
26035;DHT22;13809;48.632;11.576;2022-08-16T06:38:13;21.30;36.20
26035;DHT22;13809;48.632;11.576;2022-08-16T06:43:35;21.50;35.80
26035;DHT22;13809;48.632;11.576;2022-08-16T06:48:41;21.60;35.90
26035;DHT22;13809;48.632;11.576;2022-08-16T06:53:51;21.80;36.30
26035;DHT22;13809;48.632;11.576;2022-08-16T06:58:55;22.00;36.00
26035;DHT22;13809;48.632;11.576;2022-08-16T07:04:01;22.10;35.90
26035;DHT22;13809;48.632;11.576;2022-08-16T07:09:12;22.30;36.30
26035;DHT22;13809;48.632;11.576;2022-08-16T07:14:16;22.50;35.90
26035;DHT22;13809;48.632;11.576;2022-08-16T07:19:29;22.70;35.40
26035;DHT22;13809;48.632;11.576;2022-08-16T07:24:53;22.90;36.00
26035;DHT22;13809;48.632;11.576;2022-08-16T07:29:57;23.10;35.30
26035;DHT22;13809;48.632;11.576;2022-08-16T07:35:03;23.30;35.30
26035;DHT22;13809;48.632;11.576;2022-08-16T07:40:07;23.50;35.40
26035;DHT22;13809;48.632;11.576;2022-08-16T07:45:12;23.70;35.00
26035;DHT22;13809;48.632;11.576;2022-08-16T07:50:20;23.90;34.70
26035;DHT22;13809;48.632;11.576;2022-08-16T07:55:43;24.10;34.50
26035;DHT22;13809;48.632;11.576;2022-08-16T08:00:49;24.30;34.50
26035;DHT22;13809;48.632;11.576;2022-08-16T08:12:16;24.80;33.50
26035;DHT22;13809;48.632;11.576;2022-08-16T08:17:32;25.10;33.20
26035;DHT22;13809;48.632;11.576;2022-08-16T08:22:46;25.40;33.10
26035;DHT22;13809;48.632;11.576;2022-08-16T08:27:51;25.70;32.50
26035;DHT22;13809;48.632;11.576;2022-08-16T08:32:58;25.90;32.60
26035;DHT22;13809;48.632;11.576;2022-08-16T08:38:02;26.10;31.90
26035;DHT22;13809;48.632;11.576;2022-08-16T08:43:10;26.30;31.40
26035;DHT22;13809;48.632;11.576;2022-08-16T08:48:20;26.50;30.70
26035;DHT22;13809;48.632;11.576;2022-08-16T08:53:36;26.80;30.60
26035;DHT22;13809;48.632;11.576;2022-08-16T08:58:42;27.00;30.40
26035;DHT22;13809;48.632;11.576;2022-08-16T09:03:59;27.20;29.80
26035;DHT22;13809;48.632;11.576;2022-08-16T09:09:05;27.50;30.00
26035;DHT22;13809;48.632;11.576;2022-08-16T09:14:19;27.60;29.60
26035;DHT22;13809;48.632;11.576;2022-08-16T09:19:25;27.80;28.80
26035;DHT22;13809;48.632;11.576;2022-08-16T09:24:34;27.90;29.10
26035;DHT22;13809;48.632;11.576;2022-08-16T09:29:55;28.10;28.70
26035;DHT22;13809;48.632;11.576;2022-08-16T09:35:04;28.20;28.00
26035;DHT22;13809;48.632;11.576;2022-08-16T09:40:08;28.40;27.40
26035;DHT22;13809;48.632;11.576;2022-08-16T09:45:33;28.60;27.80
26035;DHT22;13809;48.632;11.576;2022-08-16T09:50:41;28.80;26.90
26035;DHT22;13809;48.632;11.576;2022-08-16T09:55:47;28.90;27.10
26035;DHT22;13809;48.632;11.576;2022-08-16T10:00:53;29.10;27.00
26035;DHT22;13809;48.632;11.576;2022-08-16T10:05:57;29.30;25.90
26035;DHT22;13809;48.632;11.576;2022-08-16T10:11:00;29.50;26.50
26035;DHT22;13809;48.632;11.576;2022-08-16T10:16:27;29.60;26.10
26035;DHT22;13809;48.632;11.576;2022-08-16T10:21:30;29.80;25.00
26035;DHT22;13809;48.632;11.576;2022-08-16T10:26:36;29.80;25.30
26035;DHT22;13809;48.632;11.576;2022-08-16T10:32:00;29.90;24.80
26035;DHT22;13809;48.632;11.576;2022-08-16T10:37:04;30.00;24.60
26035;DHT22;13809;48.632;11.576;2022-08-16T10:42:08;30.20;24.70
26035;DHT22;13809;48.632;11.576;2022-08-16T10:47:15;30.30;24.60
26035;DHT22;13809;48.632;11.576;2022-08-16T10:52:18;30.40;23.70
26035;DHT22;13809;48.632;11.576;2022-08-16T10:57:25;30.60;24.00
26035;DHT22;13809;48.632;11.576;2022-08-16T11:02:35;30.70;24.40
26035;DHT22;13809;48.632;11.576;2022-08-16T11:07:59;30.80;23.10
26035;DHT22;13809;48.632;11.576;2022-08-16T11:13:08;30.90;23.00
26035;DHT22;13809;48.632;11.576;2022-08-16T11:18:32;30.80;23.10
26035;DHT22;13809;48.632;11.576;2022-08-16T11:23:56;30.80;22.20
26035;DHT22;13809;48.632;11.576;2022-08-16T11:29:00;30.80;22.70
26035;DHT22;13809;48.632;11.576;2022-08-16T11:34:21;30.90;22.60
26035;DHT22;13809;48.632;11.576;2022-08-16T11:39:26;30.90;21.60
26035;DHT22;13809;48.632;11.576;2022-08-16T11:44:29;30.90;21.70
26035;DHT22;13809;48.632;11.576;2022-08-16T11:49:54;30.80;21.50
26035;DHT22;13809;48.632;11.576;2022-08-16T11:54:57;30.70;21.80
26035;DHT22;13809;48.632;11.576;2022-08-16T12:00:03;30.70;22.20
26035;DHT22;13809;48.632;11.576;2022-08-16T12:05:11;30.70;21.90
26035;DHT22;13809;48.632;11.576;2022-08-16T12:10:18;30.80;21.50
26035;DHT22;13809;48.632;11.576;2022-08-16T12:15:22;30.90;21.40
26035;DHT22;13809;48.632;11.576;2022-08-16T12:20:30;30.90;21.60
26035;DHT22;13809;48.632;11.576;2022-08-16T12:25:35;30.90;20.50
26035;DHT22;13809;48.632;11.576;2022-08-16T12:30:40;30.90;21.60
26035;DHT22;13809;48.632;11.576;2022-08-16T12:35:47;30.80;21.00
26035;DHT22;13809;48.632;11.576;2022-08-16T12:40:51;30.80;20.60
26035;DHT22;13809;48.632;11.576;2022-08-16T12:45:58;30.90;21.10
26035;DHT22;13809;48.632;11.576;2022-08-16T12:51:07;30.90;21.10
26035;DHT22;13809;48.632;11.576;2022-08-16T12:56:14;31.00;20.70
26035;DHT22;13809;48.632;11.576;2022-08-16T13:01:22;31.20;20.70
26035;DHT22;13809;48.632;11.576;2022-08-16T13:06:27;31.30;20.10
26035;DHT22;13809;48.632;11.576;2022-08-16T13:11:37;31.30;19.90
26035;DHT22;13809;48.632;11.576;2022-08-16T13:16:59;31.50;19.90
26035;DHT22;13809;48.632;11.576;2022-08-16T13:22:06;31.50;20.10
26035;DHT22;13809;48.632;11.576;2022-08-16T13:27:19;31.60;19.10
26035;DHT22;13809;48.632;11.576;2022-08-16T13:32:42;31.60;19.70
26035;DHT22;13809;48.632;11.576;2022-08-16T13:37:48;31.60;19.80
26035;DHT22;13809;48.632;11.576;2022-08-16T13:42:52;31.60;19.10
26035;DHT22;13809;48.632;11.576;2022-08-16T13:47:56;31.50;19.10
26035;DHT22;13809;48.632;11.576;2022-08-16T13:53:04;31.50;19.30
26035;DHT22;13809;48.632;11.576;2022-08-16T13:58:08;31.50;18.90
26035;DHT22;13809;48.632;11.576;2022-08-16T14:03:32;31.60;19.20
26035;DHT22;13809;48.632;11.576;2022-08-16T14:08:40;31.70;19.10
26035;DHT22;13809;48.632;11.576;2022-08-16T14:13:43;31.90;18.50
26035;DHT22;13809;48.632;11.576;2022-08-16T14:18:47;32.00;18.70
26035;DHT22;13809;48.632;11.576;2022-08-16T14:23:51;32.00;18.20
26035;DHT22;13809;48.632;11.576;2022-08-16T14:28:56;32.00;17.60
26035;DHT22;13809;48.632;11.576;2022-08-16T14:34:05;32.00;17.90
26035;DHT22;13809;48.632;11.576;2022-08-16T14:39:13;32.00;17.80
26035;DHT22;13809;48.632;11.576;2022-08-16T14:44:16;32.00;17.50
26035;DHT22;13809;48.632;11.576;2022-08-16T14:49:20;32.00;17.90
26035;DHT22;13809;48.632;11.576;2022-08-16T14:54:24;32.10;17.90
26035;DHT22;13809;48.632;11.576;2022-08-16T14:59:31;32.10;17.40
26035;DHT22;13809;48.632;11.576;2022-08-16T15:04:42;32.10;17.60
26035;DHT22;13809;48.632;11.576;2022-08-16T15:09:51;32.00;17.60
26035;DHT22;13809;48.632;11.576;2022-08-16T15:15:05;31.90;17.30
26035;DHT22;13809;48.632;11.576;2022-08-16T15:20:14;31.80;17.10
26035;DHT22;13809;48.632;11.576;2022-08-16T15:25:23;31.70;17.40
26035;DHT22;13809;48.632;11.576;2022-08-16T15:30:30;31.70;16.90
26035;DHT22;13809;48.632;11.576;2022-08-16T15:35:53;31.70;17.50
26035;DHT22;13809;48.632;11.576;2022-08-16T15:41:01;31.70;17.20
26035;DHT22;13809;48.632;11.576;2022-08-16T15:46:04;31.70;16.80
26035;DHT22;13809;48.632;11.576;2022-08-16T15:51:46;31.70;17.10
26035;DHT22;13809;48.632;11.576;2022-08-16T15:56:51;31.80;17.10
26035;DHT22;13809;48.632;11.576;2022-08-16T16:01:57;31.80;16.70
26035;DHT22;13809;48.632;11.576;2022-08-16T16:07:01;31.90;16.80
26035;DHT22;13809;48.632;11.576;2022-08-16T16:12:06;31.90;16.80
26035;DHT22;13809;48.632;11.576;2022-08-16T16:17:30;31.90;16.40
26035;DHT22;13809;48.632;11.576;2022-08-16T16:22:33;32.10;16.70
26035;DHT22;13809;48.632;11.576;2022-08-16T16:27:39;32.10;16.40
26035;DHT22;13809;48.632;11.576;2022-08-16T16:32:43;32.20;16.10
26035;DHT22;13809;48.632;11.576;2022-08-16T16:37:47;32.30;16.20
26035;DHT22;13809;48.632;11.576;2022-08-16T16:42:54;32.30;16.20
26035;DHT22;13809;48.632;11.576;2022-08-16T16:47:58;32.30;15.90
26035;DHT22;13809;48.632;11.576;2022-08-16T16:53:13;32.40;16.00
26035;DHT22;13809;48.632;11.576;2022-08-16T16:58:25;32.40;16.30
26035;DHT22;13809;48.632;11.576;2022-08-16T17:03:54;32.50;15.90
26035;DHT22;13809;48.632;11.576;2022-08-16T17:08:58;32.50;16.00
26035;DHT22;13809;48.632;11.576;2022-08-16T17:14:04;32.40;15.80
26035;DHT22;13809;48.632;11.576;2022-08-16T17:19:18;32.50;15.40
26035;DHT22;13809;48.632;11.576;2022-08-16T17:24:22;32.50;15.80
26035;DHT22;13809;48.632;11.576;2022-08-16T17:29:42;32.50;15.80
26035;DHT22;13809;48.632;11.576;2022-08-16T17:34:47;32.50;15.30
26035;DHT22;13809;48.632;11.576;2022-08-16T17:39:51;32.40;15.30
26035;DHT22;13809;48.632;11.576;2022-08-16T17:45:09;32.30;15.40
26035;DHT22;13809;48.632;11.576;2022-08-16T17:50:12;32.20;15.30
26035;DHT22;13809;48.632;11.576;2022-08-16T17:55:22;32.10;15.60
26035;DHT22;13809;48.632;11.576;2022-08-16T18:00:28;32.00;15.40
26035;DHT22;13809;48.632;11.576;2022-08-16T18:05:32;31.90;15.80
26035;DHT22;13809;48.632;11.576;2022-08-16T18:10:36;31.80;16.20
26035;DHT22;13809;48.632;11.576;2022-08-16T18:15:40;31.70;16.50
26035;DHT22;13809;48.632;11.576;2022-08-16T18:20:44;31.60;16.80
26035;DHT22;13809;48.632;11.576;2022-08-16T18:26:06;31.50;17.00
26035;DHT22;13809;48.632;11.576;2022-08-16T18:31:11;31.30;17.40
26035;DHT22;13809;48.632;11.576;2022-08-16T18:36:14;31.20;17.50
26035;DHT22;13809;48.632;11.576;2022-08-16T18:41:24;31.00;17.60
26035;DHT22;13809;48.632;11.576;2022-08-16T18:46:28;30.90;17.80
26035;DHT22;13809;48.632;11.576;2022-08-16T18:51:32;30.70;18.00
26035;DHT22;13809;48.632;11.576;2022-08-16T18:56:35;30.50;18.10
26035;DHT22;13809;48.632;11.576;2022-08-16T19:02:00;30.30;18.30
26035;DHT22;13809;48.632;11.576;2022-08-16T19:07:06;30.10;18.70
26035;DHT22;13809;48.632;11.576;2022-08-16T19:12:09;30.00;18.60
26035;DHT22;13809;48.632;11.576;2022-08-16T19:17:18;29.80;18.70
26035;DHT22;13809;48.632;11.576;2022-08-16T19:22:26;29.70;19.20
26035;DHT22;13809;48.632;11.576;2022-08-16T19:27:50;29.50;19.40
26035;DHT22;13809;48.632;11.576;2022-08-16T19:32:55;29.40;19.10
26035;DHT22;13809;48.632;11.576;2022-08-16T19:37:58;29.30;19.30
26035;DHT22;13809;48.632;11.576;2022-08-16T19:43:01;29.10;19.30
26035;DHT22;13809;48.632;11.576;2022-08-16T19:48:09;28.80;19.30
26035;DHT22;13809;48.632;11.576;2022-08-16T19:53:14;28.40;20.00
26035;DHT22;13809;48.632;11.576;2022-08-16T19:58:20;28.00;20.10
26035;DHT22;13809;48.632;11.576;2022-08-16T20:03:25;27.70;19.90
26035;DHT22;13809;48.632;11.576;2022-08-16T20:08:28;27.60;20.70
26035;DHT22;13809;48.632;11.576;2022-08-16T20:13:31;27.40;20.70
26035;DHT22;13809;48.632;11.576;2022-08-16T20:18:37;27.30;20.80
26035;DHT22;13809;48.632;11.576;2022-08-16T20:23:41;27.10;21.10
26035;DHT22;13809;48.632;11.576;2022-08-16T20:28:44;27.00;21.10
26035;DHT22;13809;48.632;11.576;2022-08-16T20:33:56;26.80;21.40
26035;DHT22;13809;48.632;11.576;2022-08-16T20:39:00;26.70;21.70
26035;DHT22;13809;48.632;11.576;2022-08-16T20:44:05;26.40;21.70
26035;DHT22;13809;48.632;11.576;2022-08-16T20:49:12;26.20;21.90
26035;DHT22;13809;48.632;11.576;2022-08-16T20:54:15;26.10;22.30
26035;DHT22;13809;48.632;11.576;2022-08-16T20:59:18;26.00;22.10
26035;DHT22;13809;48.632;11.576;2022-08-16T21:04:25;25.90;22.40
26035;DHT22;13809;48.632;11.576;2022-08-16T21:09:30;25.90;22.80
26035;DHT22;13809;48.632;11.576;2022-08-16T21:14:34;25.80;22.70
26035;DHT22;13809;48.632;11.576;2022-08-16T21:19:39;25.60;22.60
26035;DHT22;13809;48.632;11.576;2022-08-16T21:24:43;25.50;23.20
26035;DHT22;13809;48.632;11.576;2022-08-16T21:29:47;25.40;23.20
26035;DHT22;13809;48.632;11.576;2022-08-16T21:34:56;25.30;23.20
26035;DHT22;13809;48.632;11.576;2022-08-16T21:40:02;25.20;23.40
26035;DHT22;13809;48.632;11.576;2022-08-16T21:45:07;25.10;23.70
26035;DHT22;13809;48.632;11.576;2022-08-16T21:50:12;24.90;23.80
26035;DHT22;13809;48.632;11.576;2022-08-16T21:55:16;24.70;24.20
26035;DHT22;13809;48.632;11.576;2022-08-16T22:00:19;24.60;24.00
26035;DHT22;13809;48.632;11.576;2022-08-16T22:05:24;24.50;24.20
26035;DHT22;13809;48.632;11.576;2022-08-16T22:10:29;24.40;24.80
26035;DHT22;13809;48.632;11.576;2022-08-16T22:15:53;24.30;24.60
26035;DHT22;13809;48.632;11.576;2022-08-16T22:20:57;24.30;24.70
26035;DHT22;13809;48.632;11.576;2022-08-16T22:26:01;24.20;25.00
26035;DHT22;13809;48.632;11.576;2022-08-16T22:31:04;24.10;24.80
26035;DHT22;13809;48.632;11.576;2022-08-16T22:36:09;23.90;24.70
26035;DHT22;13809;48.632;11.576;2022-08-16T22:41:12;23.60;25.20
26035;DHT22;13809;48.632;11.576;2022-08-16T22:46:18;23.40;25.00
26035;DHT22;13809;48.632;11.576;2022-08-16T22:51:25;23.30;25.30
26035;DHT22;13809;48.632;11.576;2022-08-16T22:56:29;23.30;26.20
26035;DHT22;13809;48.632;11.576;2022-08-16T23:01:32;23.30;25.60
26035;DHT22;13809;48.632;11.576;2022-08-16T23:06:37;23.30;25.50
26035;DHT22;13809;48.632;11.576;2022-08-16T23:11:40;23.30;26.00
26035;DHT22;13809;48.632;11.576;2022-08-16T23:16:43;23.30;25.80
26035;DHT22;13809;48.632;11.576;2022-08-16T23:21:49;23.30;26.10
26035;DHT22;13809;48.632;11.576;2022-08-16T23:26:53;23.30;26.40
26035;DHT22;13809;48.632;11.576;2022-08-16T23:32:07;23.20;26.00
26035;DHT22;13809;48.632;11.576;2022-08-16T23:37:12;23.00;26.10
26035;DHT22;13809;48.632;11.576;2022-08-16T23:42:15;22.90;26.50
26035;DHT22;13809;48.632;11.576;2022-08-16T23:47:38;22.80;26.40
26035;DHT22;13809;48.632;11.576;2022-08-16T23:52:55;22.70;26.60
26035;DHT22;13809;48.632;11.576;2022-08-16T23:57:59;22.60;27.10
